METAR Reports From Nearby Airports

 

KLUD - Decatur, Texas, USA
Distance from Wildwood: ESE 5mi, 8km
Dati ricevuti: Aug 13, 2020 3:35am
Sereno
Sereno
 Vento da SSE
Vento: SSE 14 mph , 22 km/h
Temperatura: 84°F , 29°C
Indice di Calore: 87°F , 31°C
P.to Rugiada: 68°F , 20°C
Umidità: 58%
Barometro: 29.91 inHg , 1012.9 hPa
Clouds: Sereno
Visibility: 7 miles , 11 km
2020/08/13 08:35 KLUD 130835Z AUTO 16012KT 7SM CLR 29/20 A2991 RMK AO2 T02900198
KXBP - Bridgeport, Texas, USA
Distance from Wildwood: OSO 11mi, 18km
Dati ricevuti: Aug 13, 2020 3:35am
Sereno
Sereno
 Vento da S
Vento: S 7 mph , 11 km/h
Temperatura: 82°F , 28°C
Indice di Calore: 84°F , 29°C
P.to Rugiada: 66°F , 19°C
Umidità: 58%
Barometro: 29.91 inHg , 1012.9 hPa
Clouds: Sereno
Visibility: 10 miles , 16 km
2020/08/13 08:35 KXBP 130835Z AUTO 19006KT 10SM CLR 28/19 A2991 RMK AO2 T02810185
 
K0F2 - Bowie, Texas, USA
Distance from Wildwood: NNO 24mi, 39km
Dati ricevuti: Aug 13, 2020 3:35am
Sereno
Sereno
 Vento da SE
Vento: SE 5 mph , 7 km/h
Temperatura: 79°F , 26°C
P.to Rugiada: 68°F , 20°C
Umidità: 70%
Barometro: 29.90 inHg , 1012.5 hPa
Clouds: Sereno
Visibility: 10 miles , 16 km
2020/08/13 08:35 K0F2 130835Z AUTO 14004KT 10SM CLR 26/20 A2990 RMK AO2 T02550204
KDTO - Denton, Texas, USA
Distance from Wildwood: E 27mi, 44km
Dati ricevuti: Aug 13, 2020 2:53am
Sereno
Sereno
 Vento da SSE
Vento: SSE 6 mph , 9 km/h
Temperatura: 84°F , 29°C
Indice di Calore: 88°F , 31°C
P.to Rugiada: 70°F , 21°C
Umidità: 62%
Barometro: 29.89 inHg , 1012.2 hPa
Clouds: Sereno
Visibility: 10 miles , 16 km
2020/08/13 07:53 KDTO 130753Z AUTO 15005KT 10SM CLR 29/21 A2989 RMK AO2 SLP111 T02890211
 
KAFW - Ft Worth/Allianc, Texas, USA
Distance from Wildwood: SE 29mi, 46km
Dati ricevuti: Aug 13, 2020 2:53am
Few Clouds
Few Clouds
 Vento da S
Vento: S 14 mph , 22 km/h
Temperatura: 86°F , 30°C
Indice di Calore: 91°F , 33°C
P.to Rugiada: 70°F , 21°C
Umidità: 59%
Barometro: 29.89 inHg , 1012.2 hPa
Clouds: Few Clouds
Visibility: 10 miles , 16 km
Cloud details: Few Clouds 30000 ft
2020/08/13 07:53 KAFW 130753Z 18012KT 10SM FEW300 30/21 A2989 RMK AO2 SLP100 T03000206
KFTW - Fort Worth, Texas, USA
Distance from Wildwood: SSE 34mi, 55km
Dati ricevuti: Aug 13, 2020 2:53am
Sereno
Sereno
 Vento da S
Vento: S 12 mph , 19 km/h
Temperatura: 84°F , 29°C
Barometro: 29.89 inHg , 1012.2 hPa
Clouds: Sereno
Visibility: 10 miles , 16 km
2020/08/13 07:53 KFTW 130753Z AUTO 17010KT 10SM CLR 29/ A2989 RMK AO2 SLP110 T0294 $
 
KNFW - Fort Worth Nas, Texas, USA
Distance from Wildwood: SSE 36mi, 58km
Dati ricevuti: Aug 13, 2020 2:52am
Sereno
Sereno
 Vento da S
Vento: S 15 mph , 24 km/h
Temperatura: 88°F , 31°C
Indice di Calore: 93°F , 34°C
P.to Rugiada: 70°F , 21°C
Umidità: 55%
Barometro: 29.90 inHg , 1012.5 hPa
Clouds: Sereno
Visibility: 10 miles , 16 km
2020/08/13 07:52 KNFW 130752Z AUTO 18013KT 10SM CLR 31/21 A2990 RMK AO2 SLP107 T03110206 VISNO N $
KGLE - Gainesville, Texas, USA
Distance from Wildwood: NE 38mi, 61km
Dati ricevuti: Aug 13, 2020 3:35am
Sereno
Sereno
 Vento da SE
Vento: SE 7 mph , 11 km/h
Temperatura: 79°F , 26°C
P.to Rugiada: 75°F , 24°C
Umidità: 89%
Barometro: 29.92 inHg , 1013.2 hPa
Clouds: Sereno
Visibility: 10 miles , 16 km
2020/08/13 08:35 KGLE 130835Z AUTO 14006KT 10SM CLR 26/24 A2992 RMK AO2 T02550235
 
KMWL - Mineral Wells, Texas, USA
Distance from Wildwood: SO 41mi, 65km
Dati ricevuti: Aug 13, 2020 2:53am
Sereno
Sereno
 Vento da SSE
Vento: SSE 10 mph , 17 km/h
Temperatura: 82°F , 28°C
Indice di Calore: 84°F , 29°C
P.to Rugiada: 66°F , 19°C
Umidità: 58%
Barometro: 29.89 inHg , 1012.2 hPa
Clouds: Sereno
Visibility: 10 miles , 16 km
2020/08/13 07:53 KMWL 130753Z AUTO 15009KT 10SM CLR 28/19 A2989 RMK AO2 SLP105 T02780189
KDFW - Dallas/Ft Worth, Texas, USA
Distance from Wildwood: ESE 45mi, 73km
Dati ricevuti: Aug 13, 2020 2:53am
Few Clouds
Few Clouds
 Vento da S
Vento: S 12 mph , 19 km/h
Temperatura: 84°F , 29°C
Indice di Calore: 89°F , 32°C
P.to Rugiada: 72°F , 22°C
Umidità: 66%
Barometro: 29.89 inHg , 1012.2 hPa
Clouds: Few Clouds
Visibility: 10 miles , 16 km
Cloud details: Few Clouds 30000 ft
2020/08/13 07:53 KDFW 130753Z 17010KT 10SM FEW300 29/22 A2989 RMK AO2 SLP110 T02940217